New Kingston, NY

9:22 AM EDT en Agosto 23, 2014 (GMT -0400)
ON TOP OF THE RIDGE | Change Station
CLOSE
Current Station
Estación meteorológica personal
Location: Halcott Center, NY
Altura: 2257 ft
Estaciones meteorológicas cercanas

Alt 2257 ft 42.21 °N, 74.48 °W | Updated 1 minute ago

Overcast
Nublado
62.5 ° F
Sensación térmica 62.5 ° F
N
1.0
Viento Variable Viento desde ESE
Gusts 3.0 mph

Hoy
Alta -- | Baja -- ° F
--% Posibilidad de precipitaciones
Ayer
Alta -- | Baja -- ° F
Precip. -- pul
6:14 AM 7:47 PM
Creciente menguante, 4% visible
Presión 30.13 pul
Visibilidad 10.0 Millas
Nubes Muy nublado 1200 ft
Muy nublado 1800 ft
Nublado 9000 ft
Punto de rocío 61 ° F
Humedad 94%
Precipitaciones 0.00 pul
Espesor de la nieve No disponible.
UV 1 de una escala de 12
Polen 7.90 de una escala de 12
PM2.5 Buena
Flu Activity No disponible.
METAR KMSV 231315Z AUTO 11005KT 10SM BKN012 BKN018 OVC090 17/15 A3013 RMK AO1

More Conditions Fewer Conditions

Presión 30.13 pul
Visibilidad 10.0 Millas
Nubes Muy nublado 1200 ft
Muy nublado 1800 ft
Nublado 9000 ft
Punto de rocío 61 ° F
Humedad 94%
Precipitaciones 0.00 pul
Espesor de la nieve No disponible.
UV 1 de una escala de 12
Polen 7.90 de una escala de 12
PM2.5 Buena
Flu Activity No disponible.
METAR KMSV 231315Z AUTO 11005KT 10SM BKN012 BKN018 OVC090 17/15 A3013 RMK AO1

More Conditions Fewer Conditions

10-Day Weather Forecast

Almanac

Astronomía

Aug. 23, 2014 Salida Puesta
Hora real 6:14 AM EDT 7:47 PM EDT
Crepúsculo civil 5:45 AM EDT 8:16 PM EDT
Crepúsculo náutico 5:09 AM EDT 8:52 PM EDT
Crepúsculo astronómico 4:31 AM EDT 9:30 PM EDT
Luna 4:27 AM EDT 6:30 PM EDT
Horas de luz 14h 31m
Horas de luz
13h 32m
Tomorrow will be 2m 39s shorter.
Creciente menguante, 4% of the Moon is Illuminated
Hoy
Creciente menguante
Ago 25
Nueva
Sep 2
Cuarto creciente
Sep 8
Luna llena
Sep 15
Cuarto menguante

Extremos de hoy

Máximos del estado Bajos del estado

Community

WunderPhotos

Upload Photos

1,746,451 ¡fotos cargadas!

WunderBlogs® & News

By Dr. Jeff Masters
Director of Meteorology, Weather Underground
By Kari Strenfel
Meteorologist, Weather Underground
By Christopher C. Burt
Weather Historian, Weather Underground
August 23, 2014
August 23, 2014
August 23, 2014

Nearby

Calidad del aire

  Calidad del aire Índice AQ Contaminante
Ayer Buena
OZONE
Ayer Buena
PM2.5
Real Buena
PM2.5
Sábado Buena
OZONE
Sábado Buena
PM2.5
Domingo Buena
OZONE
Domingo Buena
PM2.5
Lunes Buena
OZONE
Lunes Buena
PM2.5

Grosos de nieve

Estación Profundido Altura
No tenemos constancia de nieve nueva.

Actividad de terremotos

Ciudad Distance Mag. Tiempo y dato
No hay informes recientes de la actividad sísmica.
Magnitud mínima muestra es 2,5.

Temperaturas de aguas costeras

Lugar Temperatura
Sin partes meteorológicos de las estaciones

Estaciones meteorológicas cercanas